sensor_id;sensor_type;location;lat;lon;timestamp;temperature;humidity
23685;DHT22;12020;51.384;6.908;2022-10-23T00:00:58;14.30;99.90
23685;DHT22;12020;51.384;6.908;2022-10-23T00:03:24;14.30;99.90
23685;DHT22;12020;51.384;6.908;2022-10-23T00:05:50;14.20;99.90
23685;DHT22;12020;51.384;6.908;2022-10-23T00:08:17;14.20;99.90
23685;DHT22;12020;51.384;6.908;2022-10-23T00:10:43;14.20;99.90
23685;DHT22;12020;51.384;6.908;2022-10-23T00:13:09;14.20;99.90
23685;DHT22;12020;51.384;6.908;2022-10-23T00:15:35;14.20;99.90
23685;DHT22;12020;51.384;6.908;2022-10-23T00:18:03;14.20;99.90
23685;DHT22;12020;51.384;6.908;2022-10-23T00:20:28;14.20;99.90
23685;DHT22;12020;51.384;6.908;2022-10-23T00:22:54;14.20;99.90
23685;DHT22;12020;51.384;6.908;2022-10-23T00:25:20;14.20;99.90
23685;DHT22;12020;51.384;6.908;2022-10-23T00:27:46;14.20;99.90
23685;DHT22;12020;51.384;6.908;2022-10-23T00:30:12;14.20;99.90
23685;DHT22;12020;51.384;6.908;2022-10-23T00:32:38;14.20;99.90
23685;DHT22;12020;51.384;6.908;2022-10-23T00:35:05;14.20;99.90
23685;DHT22;12020;51.384;6.908;2022-10-23T00:37:31;14.20;99.90
23685;DHT22;12020;51.384;6.908;2022-10-23T00:39:57;14.30;99.90
23685;DHT22;12020;51.384;6.908;2022-10-23T00:42:26;14.30;99.90
23685;DHT22;12020;51.384;6.908;2022-10-23T00:47:17;14.30;99.90
23685;DHT22;12020;51.384;6.908;2022-10-23T00:49:43;14.30;99.90
23685;DHT22;12020;51.384;6.908;2022-10-23T00:52:11;14.30;99.90
23685;DHT22;12020;51.384;6.908;2022-10-23T00:54:39;14.30;99.90
23685;DHT22;12020;51.384;6.908;2022-10-23T00:57:10;14.30;99.90
23685;DHT22;12020;51.384;6.908;2022-10-23T00:59:38;14.30;99.90
23685;DHT22;12020;51.384;6.908;2022-10-23T01:02:04;14.30;99.90
23685;DHT22;12020;51.384;6.908;2022-10-23T01:04:30;14.30;99.90
23685;DHT22;12020;51.384;6.908;2022-10-23T01:10:19;14.20;99.90
23685;DHT22;12020;51.384;6.908;2022-10-23T01:12:49;14.30;99.90
23685;DHT22;12020;51.384;6.908;2022-10-23T01:15:20;14.20;99.90
23685;DHT22;12020;51.384;6.908;2022-10-23T01:18:19;14.20;99.90
23685;DHT22;12020;51.384;6.908;2022-10-23T01:20:57;14.30;99.90
23685;DHT22;12020;51.384;6.908;2022-10-23T01:27:34;14.30;99.90
23685;DHT22;12020;51.384;6.908;2022-10-23T01:35:03;14.40;99.90
23685;DHT22;12020;51.384;6.908;2022-10-23T01:37:37;14.40;99.90
23685;DHT22;12020;51.384;6.908;2022-10-23T01:40:11;14.50;99.90
23685;DHT22;12020;51.384;6.908;2022-10-23T01:42:43;14.50;99.90
23685;DHT22;12020;51.384;6.908;2022-10-23T01:45:18;14.50;99.90
23685;DHT22;12020;51.384;6.908;2022-10-23T01:47:47;14.50;99.90
23685;DHT22;12020;51.384;6.908;2022-10-23T01:50:14;14.50;99.90
23685;DHT22;12020;51.384;6.908;2022-10-23T01:52:41;14.50;99.90
23685;DHT22;12020;51.384;6.908;2022-10-23T01:55:09;14.50;99.90
23685;DHT22;12020;51.384;6.908;2022-10-23T01:57:38;14.50;99.90
23685;DHT22;12020;51.384;6.908;2022-10-23T02:00:13;14.50;99.90
23685;DHT22;12020;51.384;6.908;2022-10-23T02:02:40;14.60;99.90
23685;DHT22;12020;51.384;6.908;2022-10-23T02:07:44;14.60;99.90
23685;DHT22;12020;51.384;6.908;2022-10-23T02:10:12;14.60;99.90
23685;DHT22;12020;51.384;6.908;2022-10-23T02:12:46;14.70;99.90
23685;DHT22;12020;51.384;6.908;2022-10-23T02:20:54;14.60;99.90
23685;DHT22;12020;51.384;6.908;2022-10-23T02:23:23;14.60;99.90
23685;DHT22;12020;51.384;6.908;2022-10-23T02:25:56;14.60;99.90
23685;DHT22;12020;51.384;6.908;2022-10-23T02:28:29;14.60;99.90
23685;DHT22;12020;51.384;6.908;2022-10-23T02:30:58;14.50;99.90
23685;DHT22;12020;51.384;6.908;2022-10-23T02:33:26;14.50;99.90
23685;DHT22;12020;51.384;6.908;2022-10-23T02:35:53;14.50;99.90
23685;DHT22;12020;51.384;6.908;2022-10-23T02:38:29;14.40;99.90
23685;DHT22;12020;51.384;6.908;2022-10-23T02:41:02;14.40;99.90
23685;DHT22;12020;51.384;6.908;2022-10-23T02:43:38;14.40;99.90
23685;DHT22;12020;51.384;6.908;2022-10-23T02:49:18;14.30;99.90
23685;DHT22;12020;51.384;6.908;2022-10-23T02:57:31;14.30;99.90
23685;DHT22;12020;51.384;6.908;2022-10-23T03:02:41;14.30;99.90
23685;DHT22;12020;51.384;6.908;2022-10-23T03:05:13;14.30;99.90
23685;DHT22;12020;51.384;6.908;2022-10-23T03:07:39;14.20;99.90
23685;DHT22;12020;51.384;6.908;2022-10-23T03:10:06;14.20;99.90
23685;DHT22;12020;51.384;6.908;2022-10-23T03:12:33;14.20;99.90
23685;DHT22;12020;51.384;6.908;2022-10-23T03:14:59;14.20;99.90
23685;DHT22;12020;51.384;6.908;2022-10-23T03:17:25;14.20;99.90
23685;DHT22;12020;51.384;6.908;2022-10-23T03:19:50;14.20;99.90
23685;DHT22;12020;51.384;6.908;2022-10-23T03:22:16;14.10;99.90
23685;DHT22;12020;51.384;6.908;2022-10-23T03:24:43;14.10;99.90
23685;DHT22;12020;51.384;6.908;2022-10-23T03:27:09;14.10;99.90
23685;DHT22;12020;51.384;6.908;2022-10-23T03:29:36;14.00;99.90
23685;DHT22;12020;51.384;6.908;2022-10-23T03:32:02;14.00;99.90
23685;DHT22;12020;51.384;6.908;2022-10-23T03:34:31;14.00;99.90
23685;DHT22;12020;51.384;6.908;2022-10-23T03:36:57;14.00;99.90
23685;DHT22;12020;51.384;6.908;2022-10-23T03:39:25;14.00;99.90
23685;DHT22;12020;51.384;6.908;2022-10-23T03:41:51;13.90;99.90
23685;DHT22;12020;51.384;6.908;2022-10-23T03:44:17;13.90;99.90
23685;DHT22;12020;51.384;6.908;2022-10-23T03:46:42;14.00;99.90
23685;DHT22;12020;51.384;6.908;2022-10-23T03:49:08;13.90;99.90
23685;DHT22;12020;51.384;6.908;2022-10-23T03:51:34;13.90;99.90
23685;DHT22;12020;51.384;6.908;2022-10-23T03:54:00;13.90;99.90
23685;DHT22;12020;51.384;6.908;2022-10-23T03:56:26;13.90;99.90
23685;DHT22;12020;51.384;6.908;2022-10-23T03:58:52;13.90;99.90
23685;DHT22;12020;51.384;6.908;2022-10-23T04:01:18;13.90;99.90
23685;DHT22;12020;51.384;6.908;2022-10-23T04:03:43;13.90;99.90
23685;DHT22;12020;51.384;6.908;2022-10-23T04:06:09;13.90;99.90
23685;DHT22;12020;51.384;6.908;2022-10-23T04:08:35;13.90;99.90
23685;DHT22;12020;51.384;6.908;2022-10-23T04:11:01;13.90;99.90
23685;DHT22;12020;51.384;6.908;2022-10-23T04:13:26;13.90;99.90
23685;DHT22;12020;51.384;6.908;2022-10-23T04:15:52;13.90;99.90
23685;DHT22;12020;51.384;6.908;2022-10-23T04:18:18;13.90;99.90
23685;DHT22;12020;51.384;6.908;2022-10-23T04:20:47;13.90;99.90
23685;DHT22;12020;51.384;6.908;2022-10-23T04:23:14;13.90;99.90
23685;DHT22;12020;51.384;6.908;2022-10-23T04:25:40;13.90;99.90
23685;DHT22;12020;51.384;6.908;2022-10-23T04:28:06;13.90;99.90
23685;DHT22;12020;51.384;6.908;2022-10-23T04:30:33;13.90;99.90
23685;DHT22;12020;51.384;6.908;2022-10-23T04:32:59;13.90;99.90
23685;DHT22;12020;51.384;6.908;2022-10-23T04:35:24;14.00;99.90
23685;DHT22;12020;51.384;6.908;2022-10-23T04:37:50;14.00;99.90
23685;DHT22;12020;51.384;6.908;2022-10-23T04:40:16;14.00;99.90
23685;DHT22;12020;51.384;6.908;2022-10-23T04:42:41;14.00;99.90
23685;DHT22;12020;51.384;6.908;2022-10-23T04:45:07;14.00;99.90
23685;DHT22;12020;51.384;6.908;2022-10-23T04:47:33;13.90;99.90
23685;DHT22;12020;51.384;6.908;2022-10-23T04:49:59;13.90;99.90
23685;DHT22;12020;51.384;6.908;2022-10-23T04:52:24;14.00;99.90
23685;DHT22;12020;51.384;6.908;2022-10-23T04:54:51;14.00;99.90
23685;DHT22;12020;51.384;6.908;2022-10-23T04:57:18;14.00;99.90
23685;DHT22;12020;51.384;6.908;2022-10-23T04:59:44;14.10;99.90
23685;DHT22;12020;51.384;6.908;2022-10-23T05:02:09;14.10;99.90
23685;DHT22;12020;51.384;6.908;2022-10-23T05:04:35;14.10;99.90
23685;DHT22;12020;51.384;6.908;2022-10-23T05:07:02;14.10;99.90
23685;DHT22;12020;51.384;6.908;2022-10-23T05:09:27;14.20;99.90
23685;DHT22;12020;51.384;6.908;2022-10-23T05:11:53;14.20;99.90
23685;DHT22;12020;51.384;6.908;2022-10-23T05:14:19;14.30;99.90
23685;DHT22;12020;51.384;6.908;2022-10-23T05:19:14;14.20;99.90
23685;DHT22;12020;51.384;6.908;2022-10-23T05:21:43;14.30;99.90
23685;DHT22;12020;51.384;6.908;2022-10-23T05:24:10;14.30;99.90
23685;DHT22;12020;51.384;6.908;2022-10-23T05:26:36;14.20;99.90
23685;DHT22;12020;51.384;6.908;2022-10-23T05:29:02;14.30;99.90
23685;DHT22;12020;51.384;6.908;2022-10-23T05:31:28;14.30;99.90
23685;DHT22;12020;51.384;6.908;2022-10-23T05:33:55;14.30;99.90
23685;DHT22;12020;51.384;6.908;2022-10-23T05:36:22;14.30;99.90
23685;DHT22;12020;51.384;6.908;2022-10-23T05:38:49;14.30;99.90
23685;DHT22;12020;51.384;6.908;2022-10-23T05:41:16;14.30;99.90
23685;DHT22;12020;51.384;6.908;2022-10-23T05:43:42;14.30;99.90
23685;DHT22;12020;51.384;6.908;2022-10-23T05:46:08;14.30;99.90
23685;DHT22;12020;51.384;6.908;2022-10-23T05:48:34;14.30;99.90
23685;DHT22;12020;51.384;6.908;2022-10-23T05:51:07;14.30;99.90
23685;DHT22;12020;51.384;6.908;2022-10-23T05:53:33;14.30;99.90
23685;DHT22;12020;51.384;6.908;2022-10-23T05:56:06;14.30;99.90
23685;DHT22;12020;51.384;6.908;2022-10-23T05:58:32;14.40;99.90
23685;DHT22;12020;51.384;6.908;2022-10-23T06:00:58;14.30;99.90
23685;DHT22;12020;51.384;6.908;2022-10-23T06:03:23;14.40;99.90
23685;DHT22;12020;51.384;6.908;2022-10-23T06:05:50;14.30;99.90
23685;DHT22;12020;51.384;6.908;2022-10-23T06:08:16;14.40;99.90
23685;DHT22;12020;51.384;6.908;2022-10-23T06:10:42;14.40;99.90
23685;DHT22;12020;51.384;6.908;2022-10-23T06:13:07;14.40;99.90
23685;DHT22;12020;51.384;6.908;2022-10-23T06:15:33;14.40;99.90
23685;DHT22;12020;51.384;6.908;2022-10-23T06:18:03;14.40;99.90
23685;DHT22;12020;51.384;6.908;2022-10-23T06:20:29;14.40;99.90
23685;DHT22;12020;51.384;6.908;2022-10-23T06:22:55;14.40;99.90
23685;DHT22;12020;51.384;6.908;2022-10-23T06:25:22;14.40;99.90
23685;DHT22;12020;51.384;6.908;2022-10-23T06:27:47;14.40;99.90
23685;DHT22;12020;51.384;6.908;2022-10-23T06:30:13;14.30;99.90
23685;DHT22;12020;51.384;6.908;2022-10-23T06:32:39;14.30;99.90
23685;DHT22;12020;51.384;6.908;2022-10-23T06:35:06;14.30;99.90
23685;DHT22;12020;51.384;6.908;2022-10-23T06:37:33;14.30;99.90
23685;DHT22;12020;51.384;6.908;2022-10-23T06:39:58;14.40;99.90
23685;DHT22;12020;51.384;6.908;2022-10-23T06:42:24;14.40;99.90
23685;DHT22;12020;51.384;6.908;2022-10-23T06:44:50;14.40;99.90
23685;DHT22;12020;51.384;6.908;2022-10-23T06:47:16;14.40;99.90
23685;DHT22;12020;51.384;6.908;2022-10-23T06:49:41;14.40;99.90
23685;DHT22;12020;51.384;6.908;2022-10-23T06:52:07;14.40;99.90
23685;DHT22;12020;51.384;6.908;2022-10-23T06:54:33;14.40;99.90
23685;DHT22;12020;51.384;6.908;2022-10-23T06:56:59;14.40;99.90
23685;DHT22;12020;51.384;6.908;2022-10-23T06:59:24;14.50;99.90
23685;DHT22;12020;51.384;6.908;2022-10-23T07:01:53;14.50;99.90
23685;DHT22;12020;51.384;6.908;2022-10-23T07:04:19;14.50;99.90
23685;DHT22;12020;51.384;6.908;2022-10-23T07:06:44;14.60;99.90
23685;DHT22;12020;51.384;6.908;2022-10-23T07:09:10;14.60;99.90
23685;DHT22;12020;51.384;6.908;2022-10-23T07:11:36;14.60;99.90
23685;DHT22;12020;51.384;6.908;2022-10-23T07:14:02;14.60;99.90
23685;DHT22;12020;51.384;6.908;2022-10-23T07:16:27;14.70;99.90
23685;DHT22;12020;51.384;6.908;2022-10-23T07:18:55;14.70;99.90
23685;DHT22;12020;51.384;6.908;2022-10-23T07:21:30;14.70;99.90
23685;DHT22;12020;51.384;6.908;2022-10-23T07:23:57;14.70;99.90
23685;DHT22;12020;51.384;6.908;2022-10-23T07:26:23;14.80;99.90
23685;DHT22;12020;51.384;6.908;2022-10-23T07:29:03;15.00;99.90
23685;DHT22;12020;51.384;6.908;2022-10-23T07:31:29;15.20;99.90
23685;DHT22;12020;51.384;6.908;2022-10-23T07:33:54;15.30;99.90
23685;DHT22;12020;51.384;6.908;2022-10-23T07:36:20;15.30;99.90
23685;DHT22;12020;51.384;6.908;2022-10-23T07:38:46;15.30;99.90
23685;DHT22;12020;51.384;6.908;2022-10-23T07:41:12;15.30;99.90
23685;DHT22;12020;51.384;6.908;2022-10-23T07:43:37;15.30;99.90
23685;DHT22;12020;51.384;6.908;2022-10-23T07:46:03;15.20;99.90
23685;DHT22;12020;51.384;6.908;2022-10-23T07:48:29;15.20;99.90
23685;DHT22;12020;51.384;6.908;2022-10-23T07:50:59;15.20;99.90
23685;DHT22;12020;51.384;6.908;2022-10-23T07:53:26;15.20;99.90
23685;DHT22;12020;51.384;6.908;2022-10-23T07:55:59;15.30;99.90
23685;DHT22;12020;51.384;6.908;2022-10-23T07:58:26;15.30;99.90
23685;DHT22;12020;51.384;6.908;2022-10-23T08:01:00;15.30;99.90
23685;DHT22;12020;51.384;6.908;2022-10-23T08:03:32;15.40;99.90
23685;DHT22;12020;51.384;6.908;2022-10-23T08:05:59;15.50;99.90
23685;DHT22;12020;51.384;6.908;2022-10-23T08:08:25;15.50;99.90
23685;DHT22;12020;51.384;6.908;2022-10-23T08:10:52;15.60;99.90
23685;DHT22;12020;51.384;6.908;2022-10-23T08:13:20;15.60;99.90
23685;DHT22;12020;51.384;6.908;2022-10-23T08:15:47;15.70;99.90
23685;DHT22;12020;51.384;6.908;2022-10-23T08:18:14;15.80;99.90
23685;DHT22;12020;51.384;6.908;2022-10-23T08:20:45;15.80;99.90
23685;DHT22;12020;51.384;6.908;2022-10-23T08:23:13;15.90;99.90
23685;DHT22;12020;51.384;6.908;2022-10-23T08:25:41;16.00;99.90
23685;DHT22;12020;51.384;6.908;2022-10-23T08:28:08;16.10;99.90
23685;DHT22;12020;51.384;6.908;2022-10-23T08:30:35;16.10;99.90
23685;DHT22;12020;51.384;6.908;2022-10-23T08:33:05;16.20;99.90
23685;DHT22;12020;51.384;6.908;2022-10-23T08:35:36;16.30;99.90
23685;DHT22;12020;51.384;6.908;2022-10-23T08:38:03;16.40;99.90
23685;DHT22;12020;51.384;6.908;2022-10-23T08:40:29;16.50;99.90
23685;DHT22;12020;51.384;6.908;2022-10-23T08:45:46;16.70;99.90
23685;DHT22;12020;51.384;6.908;2022-10-23T08:48:29;16.80;99.90
23685;DHT22;12020;51.384;6.908;2022-10-23T08:50:59;16.90;99.90
23685;DHT22;12020;51.384;6.908;2022-10-23T08:56:12;17.10;99.90
23685;DHT22;12020;51.384;6.908;2022-10-23T09:01:46;17.20;99.90
23685;DHT22;12020;51.384;6.908;2022-10-23T09:04:16;17.30;99.90
23685;DHT22;12020;51.384;6.908;2022-10-23T09:09:54;17.40;99.90
23685;DHT22;12020;51.384;6.908;2022-10-23T09:12:25;17.50;99.90
23685;DHT22;12020;51.384;6.908;2022-10-23T09:17:46;17.50;99.90
23685;DHT22;12020;51.384;6.908;2022-10-23T09:20:21;17.60;99.90
23685;DHT22;12020;51.384;6.908;2022-10-23T09:22:49;17.50;99.90
23685;DHT22;12020;51.384;6.908;2022-10-23T09:25:26;17.60;99.90
23685;DHT22;12020;51.384;6.908;2022-10-23T09:27:57;17.60;99.90
23685;DHT22;12020;51.384;6.908;2022-10-23T09:30:38;17.70;99.90
23685;DHT22;12020;51.384;6.908;2022-10-23T09:33:25;17.70;99.90
23685;DHT22;12020;51.384;6.908;2022-10-23T09:36:00;17.70;99.90
23685;DHT22;12020;51.384;6.908;2022-10-23T09:38:33;17.80;99.90
23685;DHT22;12020;51.384;6.908;2022-10-23T09:43:46;17.90;99.90
23685;DHT22;12020;51.384;6.908;2022-10-23T09:46:49;18.00;99.90
23685;DHT22;12020;51.384;6.908;2022-10-23T09:49:28;18.00;99.90
23685;DHT22;12020;51.384;6.908;2022-10-23T09:54:52;18.00;99.90
23685;DHT22;12020;51.384;6.908;2022-10-23T09:59:56;18.00;99.90
23685;DHT22;12020;51.384;6.908;2022-10-23T10:02:31;18.00;99.90
23685;DHT22;12020;51.384;6.908;2022-10-23T10:04:59;18.00;99.90
23685;DHT22;12020;51.384;6.908;2022-10-23T10:07:28;18.10;99.90
23685;DHT22;12020;51.384;6.908;2022-10-23T10:09:56;18.20;99.90
23685;DHT22;12020;51.384;6.908;2022-10-23T10:12:55;18.20;99.90
23685;DHT22;12020;51.384;6.908;2022-10-23T10:15:41;18.30;99.90
23685;DHT22;12020;51.384;6.908;2022-10-23T10:18:44;18.30;99.90
23685;DHT22;12020;51.384;6.908;2022-10-23T10:24:04;18.40;99.90
23685;DHT22;12020;51.384;6.908;2022-10-23T10:43:23;18.50;99.90
23685;DHT22;12020;51.384;6.908;2022-10-23T10:46:03;18.50;99.90
23685;DHT22;12020;51.384;6.908;2022-10-23T10:48:54;18.60;99.90
23685;DHT22;12020;51.384;6.908;2022-10-23T10:51:30;18.60;99.90
23685;DHT22;12020;51.384;6.908;2022-10-23T10:56:50;18.60;99.90
23685;DHT22;12020;51.384;6.908;2022-10-23T10:59:34;18.60;99.90
23685;DHT22;12020;51.384;6.908;2022-10-23T11:03:10;18.70;99.90
23685;DHT22;12020;51.384;6.908;2022-10-23T11:05:23;18.70;99.90
23685;DHT22;12020;51.384;6.908;2022-10-23T11:27:47;19.10;99.90
23685;DHT22;12020;51.384;6.908;2022-10-23T11:38:31;19.20;99.90
23685;DHT22;12020;51.384;6.908;2022-10-23T11:41:04;19.10;99.90
23685;DHT22;12020;51.384;6.908;2022-10-23T12:06:56;19.30;99.90
23685;DHT22;12020;51.384;6.908;2022-10-23T12:09:41;19.30;99.90
23685;DHT22;12020;51.384;6.908;2022-10-23T12:14:39;19.30;99.90
23685;DHT22;12020;51.384;6.908;2022-10-23T12:17:27;19.30;99.90
23685;DHT22;12020;51.384;6.908;2022-10-23T12:20:00;19.40;99.90
23685;DHT22;12020;51.384;6.908;2022-10-23T12:22:33;19.40;99.90
23685;DHT22;12020;51.384;6.908;2022-10-23T12:30:21;19.60;99.90
23685;DHT22;12020;51.384;6.908;2022-10-23T12:33:10;19.70;99.90
23685;DHT22;12020;51.384;6.908;2022-10-23T12:38:27;19.70;99.90
23685;DHT22;12020;51.384;6.908;2022-10-23T12:41:14;19.70;99.90
23685;DHT22;12020;51.384;6.908;2022-10-23T12:43:43;19.70;99.90
23685;DHT22;12020;51.384;6.908;2022-10-23T12:46:34;19.80;99.90
23685;DHT22;12020;51.384;6.908;2022-10-23T13:02:24;19.70;99.90
23685;DHT22;12020;51.384;6.908;2022-10-23T13:04:52;19.70;99.90
23685;DHT22;12020;51.384;6.908;2022-10-23T13:07:41;19.70;99.90
23685;DHT22;12020;51.384;6.908;2022-10-23T13:10:20;19.70;99.90
23685;DHT22;12020;51.384;6.908;2022-10-23T13:12:53;19.70;99.90
23685;DHT22;12020;51.384;6.908;2022-10-23T13:15:48;19.70;99.90
23685;DHT22;12020;51.384;6.908;2022-10-23T13:18:19;19.70;99.90
23685;DHT22;12020;51.384;6.908;2022-10-23T13:20:57;19.70;99.90
23685;DHT22;12020;51.384;6.908;2022-10-23T13:23:30;19.70;99.90
23685;DHT22;12020;51.384;6.908;2022-10-23T13:32:11;19.60;99.90
23685;DHT22;12020;51.384;6.908;2022-10-23T13:34:50;19.60;99.90
23685;DHT22;12020;51.384;6.908;2022-10-23T13:37:26;19.60;99.90
23685;DHT22;12020;51.384;6.908;2022-10-23T13:40:02;19.50;99.90
23685;DHT22;12020;51.384;6.908;2022-10-23T13:42:30;19.50;99.90
23685;DHT22;12020;51.384;6.908;2022-10-23T13:45:00;19.50;99.90
23685;DHT22;12020;51.384;6.908;2022-10-23T13:47:26;19.50;99.90
23685;DHT22;12020;51.384;6.908;2022-10-23T13:49:52;19.50;99.90
23685;DHT22;12020;51.384;6.908;2022-10-23T13:52:21;19.50;99.90
23685;DHT22;12020;51.384;6.908;2022-10-23T13:54:49;19.40;99.90
23685;DHT22;12020;51.384;6.908;2022-10-23T13:57:21;19.40;99.90
23685;DHT22;12020;51.384;6.908;2022-10-23T13:59:50;19.40;99.90
23685;DHT22;12020;51.384;6.908;2022-10-23T14:02:21;19.40;99.90
23685;DHT22;12020;51.384;6.908;2022-10-23T14:04:49;19.40;99.90
23685;DHT22;12020;51.384;6.908;2022-10-23T14:07:16;19.40;99.90
23685;DHT22;12020;51.384;6.908;2022-10-23T14:09:42;19.40;99.90
23685;DHT22;12020;51.384;6.908;2022-10-23T14:12:09;19.40;99.90
23685;DHT22;12020;51.384;6.908;2022-10-23T14:14:36;19.40;99.90
23685;DHT22;12020;51.384;6.908;2022-10-23T14:17:05;19.40;99.90
23685;DHT22;12020;51.384;6.908;2022-10-23T14:19:32;19.40;99.90
23685;DHT22;12020;51.384;6.908;2022-10-23T14:21:58;19.40;99.90
23685;DHT22;12020;51.384;6.908;2022-10-23T14:24:24;19.40;99.90
23685;DHT22;12020;51.384;6.908;2022-10-23T14:26:49;19.40;99.90
23685;DHT22;12020;51.384;6.908;2022-10-23T14:29:20;19.40;99.90
23685;DHT22;12020;51.384;6.908;2022-10-23T14:31:47;19.40;99.90
23685;DHT22;12020;51.384;6.908;2022-10-23T14:34:16;19.30;99.90
23685;DHT22;12020;51.384;6.908;2022-10-23T14:36:45;19.30;99.90
23685;DHT22;12020;51.384;6.908;2022-10-23T14:39:11;19.40;99.90
23685;DHT22;12020;51.384;6.908;2022-10-23T14:41:37;19.30;99.90
23685;DHT22;12020;51.384;6.908;2022-10-23T14:44:05;19.30;99.90
23685;DHT22;12020;51.384;6.908;2022-10-23T14:46:32;19.30;99.90
23685;DHT22;12020;51.384;6.908;2022-10-23T14:49:00;19.30;99.90
23685;DHT22;12020;51.384;6.908;2022-10-23T14:51:27;19.30;99.90
23685;DHT22;12020;51.384;6.908;2022-10-23T14:54:01;19.30;99.90
23685;DHT22;12020;51.384;6.908;2022-10-23T14:56:31;19.20;99.90
23685;DHT22;12020;51.384;6.908;2022-10-23T14:59:01;19.20;99.90
23685;DHT22;12020;51.384;6.908;2022-10-23T15:01:42;19.30;99.90
23685;DHT22;12020;51.384;6.908;2022-10-23T15:04:09;19.20;99.90
23685;DHT22;12020;51.384;6.908;2022-10-23T15:06:35;19.20;99.90
23685;DHT22;12020;51.384;6.908;2022-10-23T15:09:02;19.20;99.90
23685;DHT22;12020;51.384;6.908;2022-10-23T15:11:29;19.20;99.90
23685;DHT22;12020;51.384;6.908;2022-10-23T15:13:58;19.10;99.90
23685;DHT22;12020;51.384;6.908;2022-10-23T15:16:26;19.10;99.90
23685;DHT22;12020;51.384;6.908;2022-10-23T15:18:54;19.20;99.90
23685;DHT22;12020;51.384;6.908;2022-10-23T15:21:23;19.10;99.90
23685;DHT22;12020;51.384;6.908;2022-10-23T15:23:49;19.10;99.90
23685;DHT22;12020;51.384;6.908;2022-10-23T15:26:25;19.00;99.90
23685;DHT22;12020;51.384;6.908;2022-10-23T15:28:57;18.90;99.90
23685;DHT22;12020;51.384;6.908;2022-10-23T15:31:38;18.80;99.90
23685;DHT22;12020;51.384;6.908;2022-10-23T15:34:24;18.70;99.90
23685;DHT22;12020;51.384;6.908;2022-10-23T15:36:55;18.70;99.90
23685;DHT22;12020;51.384;6.908;2022-10-23T15:39:27;18.60;99.90
23685;DHT22;12020;51.384;6.908;2022-10-23T15:42:06;18.60;99.90
23685;DHT22;12020;51.384;6.908;2022-10-23T15:49:46;18.50;99.90
23685;DHT22;12020;51.384;6.908;2022-10-23T15:52:16;18.40;99.90
23685;DHT22;12020;51.384;6.908;2022-10-23T15:54:43;18.30;99.90
23685;DHT22;12020;51.384;6.908;2022-10-23T15:57:09;18.30;99.90
23685;DHT22;12020;51.384;6.908;2022-10-23T15:59:36;18.30;99.90
23685;DHT22;12020;51.384;6.908;2022-10-23T16:02:03;18.20;99.90
23685;DHT22;12020;51.384;6.908;2022-10-23T16:04:29;18.20;99.90
23685;DHT22;12020;51.384;6.908;2022-10-23T16:06:57;18.10;99.90
23685;DHT22;12020;51.384;6.908;2022-10-23T16:09:23;18.00;99.90
23685;DHT22;12020;51.384;6.908;2022-10-23T16:11:50;18.00;99.90
23685;DHT22;12020;51.384;6.908;2022-10-23T16:14:16;17.90;99.90
23685;DHT22;12020;51.384;6.908;2022-10-23T16:16:45;17.90;99.90
23685;DHT22;12020;51.384;6.908;2022-10-23T16:19:12;17.80;99.90
23685;DHT22;12020;51.384;6.908;2022-10-23T16:21:39;17.80;99.90
23685;DHT22;12020;51.384;6.908;2022-10-23T16:24:17;17.70;99.90
23685;DHT22;12020;51.384;6.908;2022-10-23T16:26:49;17.70;99.90
23685;DHT22;12020;51.384;6.908;2022-10-23T16:29:19;17.70;99.90
23685;DHT22;12020;51.384;6.908;2022-10-23T16:31:48;17.60;99.90
23685;DHT22;12020;51.384;6.908;2022-10-23T16:34:15;17.60;99.90
23685;DHT22;12020;51.384;6.908;2022-10-23T16:36:41;17.60;99.90
23685;DHT22;12020;51.384;6.908;2022-10-23T16:39:08;17.50;99.90
23685;DHT22;12020;51.384;6.908;2022-10-23T16:41:34;17.50;99.90
23685;DHT22;12020;51.384;6.908;2022-10-23T16:44:01;17.50;99.90
23685;DHT22;12020;51.384;6.908;2022-10-23T16:46:28;17.50;99.90
23685;DHT22;12020;51.384;6.908;2022-10-23T16:48:55;17.50;99.90
23685;DHT22;12020;51.384;6.908;2022-10-23T16:51:24;17.50;99.90
23685;DHT22;12020;51.384;6.908;2022-10-23T16:53:51;17.50;99.90
23685;DHT22;12020;51.384;6.908;2022-10-23T16:56:20;17.50;99.90
23685;DHT22;12020;51.384;6.908;2022-10-23T16:58:47;17.50;99.90
23685;DHT22;12020;51.384;6.908;2022-10-23T17:01:16;17.50;99.90
23685;DHT22;12020;51.384;6.908;2022-10-23T17:03:45;17.50;99.90
23685;DHT22;12020;51.384;6.908;2022-10-23T17:06:14;17.40;99.90
23685;DHT22;12020;51.384;6.908;2022-10-23T17:08:40;17.40;99.90
23685;DHT22;12020;51.384;6.908;2022-10-23T17:11:17;17.40;99.90
23685;DHT22;12020;51.384;6.908;2022-10-23T17:13:46;17.40;99.90
23685;DHT22;12020;51.384;6.908;2022-10-23T17:16:20;17.40;99.90
23685;DHT22;12020;51.384;6.908;2022-10-23T17:18:53;17.40;99.90
23685;DHT22;12020;51.384;6.908;2022-10-23T17:21:25;17.40;99.90
23685;DHT22;12020;51.384;6.908;2022-10-23T17:23:51;17.40;99.90
23685;DHT22;12020;51.384;6.908;2022-10-23T17:26:19;17.40;99.90
23685;DHT22;12020;51.384;6.908;2022-10-23T17:28:46;17.40;99.90
23685;DHT22;12020;51.384;6.908;2022-10-23T17:31:18;17.30;99.90
23685;DHT22;12020;51.384;6.908;2022-10-23T17:33:45;17.30;99.90
23685;DHT22;12020;51.384;6.908;2022-10-23T17:36:12;17.30;99.90
23685;DHT22;12020;51.384;6.908;2022-10-23T17:38:41;17.30;99.90
23685;DHT22;12020;51.384;6.908;2022-10-23T17:41:10;17.20;99.90
23685;DHT22;12020;51.384;6.908;2022-10-23T17:43:36;17.20;99.90
23685;DHT22;12020;51.384;6.908;2022-10-23T17:46:04;17.20;99.90
23685;DHT22;12020;51.384;6.908;2022-10-23T17:48:31;17.20;99.90
23685;DHT22;12020;51.384;6.908;2022-10-23T17:53:32;17.20;99.90
23685;DHT22;12020;51.384;6.908;2022-10-23T17:56:05;17.20;99.90
23685;DHT22;12020;51.384;6.908;2022-10-23T17:58:31;17.20;99.90
23685;DHT22;12020;51.384;6.908;2022-10-23T18:01:06;17.10;99.90
23685;DHT22;12020;51.384;6.908;2022-10-23T18:03:33;17.10;99.90
23685;DHT22;12020;51.384;6.908;2022-10-23T18:06:15;17.00;99.90
23685;DHT22;12020;51.384;6.908;2022-10-23T18:08:42;17.00;99.90
23685;DHT22;12020;51.384;6.908;2022-10-23T18:11:22;17.00;99.90
23685;DHT22;12020;51.384;6.908;2022-10-23T18:13:49;17.00;99.90
23685;DHT22;12020;51.384;6.908;2022-10-23T18:16:18;16.90;99.90
23685;DHT22;12020;51.384;6.908;2022-10-23T18:18:46;16.90;99.90
23685;DHT22;12020;51.384;6.908;2022-10-23T18:21:17;16.90;99.90
23685;DHT22;12020;51.384;6.908;2022-10-23T18:28:58;17.00;99.90
23685;DHT22;12020;51.384;6.908;2022-10-23T18:34:08;17.00;99.90
23685;DHT22;12020;51.384;6.908;2022-10-23T18:36:39;17.00;99.90
23685;DHT22;12020;51.384;6.908;2022-10-23T18:39:09;17.00;99.90
23685;DHT22;12020;51.384;6.908;2022-10-23T18:41:38;17.00;99.90
23685;DHT22;12020;51.384;6.908;2022-10-23T18:44:07;17.00;99.90